Etusivu
METAR-TAF:

METAR-TAF

Lentoasemat :

In Salah, Algeria

Leveyspiiri: 27-15N, Pituuspiiri: 002-31E, korkeus merenpinnasta: 269 m

Tämänhetkinen sää

Tämä raportti tehtiin 59 minuuttia sitten, kello 19.00 UTC
Tuuli 5 kn idästä/koillisesta
Lämpötila 40°C
Ilmanpaine 1004 hPa
Näkyvyys 10 km tai enemmän
ei pilviä alle 1500 m:ssä eikä cumulonimbus-pilviä

METAR: DAUI 261900Z 07005KT CAVOK 40/// Q1004

Aika: 20:59 (19:59 UTC)

Sääennuste

Tämä raportti tehtiin 2 tuntia ja 59 minuuttia sitten, kello 17.00 UTC
Ennuste voimassa 26. päivästä klo 18 UTC - 27. päivään klo 18 UTC
Tuuli 12 kn idästä/koillisesta
Näkyvyys 10 km tai enemmän
ei pilviä alle 1500 m:ssä eikä cumulonimbus-pilviä
Ajoittain
26. päivästä klo 18 UTC - 26. päivään klo 21 UTC
Tuuli 2 kn eri suunnista

TAF: DAUI 261700Z 2618/2718 06012KT CAVOK TEMPO 2618/2621 VRB02KT

Säähavainnot ja -ennusteet yli 4000 lentoasemalta (METAR- ja TAF-raportit).

Käytössä olevat sääasemat on merkitty karttaan keltaisilla ja punaisilla pisteillä.

Aseta hiiri pisteen päälle nähdäksesi sääaseman nimen.

Klikkaa sitten nähdäksesi säähavainnot ja -ennusteet.

Kartan vaihtaminen: klikkaa mustalla rastilla varustettuja vihreitä pisteitä, niin voit zoomata sisään; viivalla varustettua vihreää pistettä, niin voit zoomata ulos tai vihreitä nuolia, niin pääset viereisille kartoille.


METAR-TAF: